createdAt,value
2023-08-26T00:02:09.434Z,72.11
2023-08-26T00:05:11.440Z,72.32
2023-08-26T00:08:13.243Z,72.25
2023-08-26T00:11:15.081Z,72.22
2023-08-26T00:14:16.919Z,72.03
2023-08-26T00:17:19.098Z,72.25
2023-08-26T00:20:22.802Z,72.05
2023-08-26T00:23:24.908Z,72.15
2023-08-26T00:26:26.761Z,72.44
2023-08-26T00:29:28.641Z,72.12
2023-08-26T00:32:30.866Z,72.51
2023-08-26T00:35:32.765Z,72.45
2023-08-26T00:38:34.624Z,72.68
2023-08-26T00:41:36.517Z,72.97
2023-08-26T00:44:38.320Z,73.25
2023-08-26T00:47:40.965Z,73.44
2023-08-26T00:50:48.984Z,73.31
2023-08-26T00:53:50.964Z,73.67
2023-08-26T00:56:52.916Z,73.41
2023-08-26T00:59:54.955Z,73.75
2023-08-26T01:02:57.156Z,73.53
2023-08-26T01:05:59.097Z,74.00
2023-08-26T01:09:01.344Z,74.00
2023-08-26T01:12:27.529Z,74.32
2023-08-26T01:15:30.722Z,74.20
2023-08-26T01:18:32.750Z,74.35
2023-08-26T01:21:37.604Z,74.61
2023-08-26T01:24:42.269Z,74.25
2023-08-26T01:27:44.377Z,74.09
2023-08-26T01:30:46.849Z,74.13
2023-08-26T01:34:18.576Z,74.30
2023-08-26T01:37:21.806Z,74.25
2023-08-26T01:40:24.789Z,74.26
2023-08-26T01:43:27.384Z,74.59
2023-08-26T01:46:38.661Z,74.78
2023-08-26T01:49:40.696Z,74.32
2023-08-26T01:52:42.999Z,74.55
2023-08-26T01:55:46.095Z,74.46
2023-08-26T01:58:49.781Z,74.77
2023-08-26T02:01:51.687Z,74.83
2023-08-26T02:04:54.276Z,74.72
2023-08-26T02:07:56.488Z,74.64
2023-08-26T02:10:59.091Z,74.88
2023-08-26T02:14:01.135Z,75.00
2023-08-26T02:17:03.924Z,75.22
2023-08-26T02:20:08.642Z,75.07
2023-08-26T02:23:13.996Z,75.30
2023-08-26T02:26:15.924Z,75.11
2023-08-26T02:29:18.749Z,75.19
2023-08-26T02:32:20.583Z,75.34
2023-08-26T02:35:22.473Z,75.34
2023-08-26T02:38:24.295Z,75.65
2023-08-26T02:41:26.198Z,75.31
2023-08-26T02:44:28.090Z,74.99
2023-08-26T02:47:30.605Z,75.30
2023-08-26T02:50:35.536Z,75.10
2023-08-26T02:53:38.622Z,75.17
2023-08-26T02:56:40.527Z,75.18
2023-08-26T02:59:42.420Z,75.30
2023-08-26T03:02:44.339Z,75.48
2023-08-26T03:05:46.472Z,75.16
2023-08-26T03:08:48.401Z,75.19
2023-08-26T03:11:50.377Z,74.97
2023-08-26T03:14:53.864Z,75.04
2023-08-26T03:17:58.415Z,74.83
2023-08-26T03:21:08.373Z,74.96
2023-08-26T03:24:13.106Z,74.74
2023-08-26T03:27:15.012Z,74.76
2023-08-26T03:30:17.248Z,74.66
2023-08-26T03:33:19.562Z,74.51
2023-08-26T03:36:21.557Z,74.58
2023-08-26T03:39:23.439Z,74.42
2023-08-26T03:42:25.592Z,74.60
2023-08-26T03:45:31.007Z,74.53
2023-08-26T03:48:34.354Z,74.08
2023-08-26T03:51:36.237Z,74.29
2023-08-26T03:54:38.132Z,74.52
2023-08-26T03:57:39.991Z,74.21
2023-08-26T04:00:42.340Z,73.98
2023-08-26T04:03:47.041Z,73.81
2023-08-26T04:06:49.106Z,73.82
2023-08-26T04:09:51.013Z,73.84
2023-08-26T04:12:53.086Z,74.36
2023-08-26T04:15:59.721Z,74.37
2023-08-26T04:19:01.791Z,74.04
2023-08-26T04:22:03.766Z,73.65
2023-08-26T04:25:08.035Z,73.44
2023-08-26T04:28:09.985Z,73.75
2023-08-26T04:31:13.018Z,73.53
2023-08-26T04:34:14.971Z,73.44
2023-08-26T04:37:16.758Z,73.07
2023-08-26T04:40:19.857Z,73.28
2023-08-26T04:43:21.777Z,73.63
2023-08-26T04:46:25.384Z,73.67
2023-08-26T04:49:27.503Z,73.11
2023-08-26T04:52:29.328Z,72.22
2023-08-26T04:55:34.019Z,71.34
2023-08-26T04:58:38.605Z,69.92
2023-08-26T05:01:40.784Z,68.26
2023-08-26T05:04:42.688Z,67.32
2023-08-26T05:07:44.566Z,66.31
2023-08-26T05:10:48.206Z,65.46
2023-08-26T05:13:50.063Z,64.37
2023-08-26T05:16:52.466Z,63.46
2023-08-26T05:19:54.383Z,63.01
2023-08-26T05:22:58.082Z,62.10
2023-08-26T05:26:00.005Z,62.07
2023-08-26T05:29:02.498Z,61.89
2023-08-26T05:32:04.614Z,62.26
2023-08-26T05:35:06.828Z,62.12
2023-08-26T05:38:08.776Z,61.54
2023-08-26T05:41:13.305Z,60.54
2023-08-26T05:44:15.489Z,60.01
2023-08-26T05:47:17.390Z,59.51
2023-08-26T05:50:19.537Z,59.01
2023-08-26T05:53:21.379Z,58.38
2023-08-26T05:56:23.272Z,58.51
2023-08-26T05:59:25.106Z,57.89
2023-08-26T06:02:27.189Z,58.10
2023-08-26T06:05:29.130Z,57.49
2023-08-26T06:08:31.215Z,57.10
2023-08-26T06:11:33.177Z,56.64
2023-08-26T06:14:35.472Z,55.89
2023-08-26T06:17:37.394Z,55.30
2023-08-26T06:20:39.319Z,54.44
2023-08-26T06:23:41.346Z,54.46
2023-08-26T06:26:45.237Z,54.51
2023-08-26T06:29:55.266Z,53.68
2023-08-26T06:32:57.790Z,53.01
2023-08-26T06:36:01.996Z,53.61
2023-08-26T06:39:05.199Z,52.88
2023-08-26T06:42:07.526Z,53.28
2023-08-26T06:45:16.809Z,53.61
2023-08-26T06:48:19.931Z,53.52
2023-08-26T06:51:21.819Z,53.62
2023-08-26T06:54:23.742Z,53.74
2023-08-26T06:57:26.153Z,52.85
2023-08-26T07:00:28.104Z,52.96
2023-08-26T07:03:30.375Z,53.76
2023-08-26T07:06:32.805Z,53.46
2023-08-26T07:09:34.635Z,52.81
2023-08-26T07:12:39.225Z,52.72
2023-08-26T07:15:41.642Z,51.83
2023-08-26T07:18:43.629Z,50.35
2023-08-26T07:21:45.567Z,48.92
2023-08-26T07:24:48.053Z,48.37
2023-08-26T07:27:49.919Z,47.58
2023-08-26T07:30:53.056Z,47.04
2023-08-26T07:33:54.872Z,47.01
2023-08-26T07:36:57.034Z,46.87
2023-08-26T07:40:02.334Z,46.90
2023-08-26T07:43:04.982Z,46.71
2023-08-26T07:49:11.763Z,45.37
2023-08-26T07:52:14.643Z,44.11
2023-08-26T07:55:16.746Z,43.71
2023-08-26T07:58:18.570Z,43.14
2023-08-26T08:01:21.729Z,42.95
2023-08-26T08:04:23.672Z,42.97
2023-08-26T08:07:25.639Z,43.28
2023-08-26T08:10:27.591Z,43.10
2023-08-26T08:13:29.468Z,43.52
2023-08-26T08:16:31.330Z,43.15
2023-08-26T08:19:38.710Z,43.04
2023-08-26T08:22:42.903Z,43.27
2023-08-26T08:25:44.976Z,42.64
2023-08-26T08:28:46.863Z,42.27
2023-08-26T08:31:48.762Z,42.59
2023-08-26T08:34:50.916Z,42.76
2023-08-26T08:37:53.109Z,42.14
2023-08-26T08:40:55.252Z,41.57
2023-08-26T08:44:03.594Z,41.18
2023-08-26T08:47:06.058Z,41.69
2023-08-26T08:50:09.549Z,41.63
2023-08-26T08:53:14.096Z,40.90
2023-08-26T08:56:20.576Z,40.73
2023-08-26T08:59:23.380Z,40.79
2023-08-26T09:02:28.052Z,40.44
2023-08-26T09:05:30.396Z,40.02
2023-08-26T09:08:33.074Z,40.24
2023-08-26T09:11:35.748Z,40.18
2023-08-26T09:14:39.908Z,39.36
2023-08-26T09:17:48.878Z,39.35
2023-08-26T09:20:50.798Z,39.41
2023-08-26T09:23:52.727Z,39.80
2023-08-26T09:27:02.104Z,39.50
2023-08-26T09:30:05.417Z,39.72
2023-08-26T09:33:15.454Z,39.44
2023-08-26T09:39:23.431Z,39.30
2023-08-26T09:42:25.645Z,39.35
2023-08-26T09:45:27.635Z,39.36
2023-08-26T09:48:29.607Z,38.65
2023-08-26T09:51:32.083Z,38.40
2023-08-26T09:54:35.714Z,37.94
2023-08-26T09:57:37.824Z,38.22
2023-08-26T10:00:39.816Z,38.39
2023-08-26T10:03:45.760Z,38.49
2023-08-26T10:06:56.888Z,38.25
2023-08-26T10:10:09.228Z,38.53
2023-08-26T10:13:11.527Z,38.47
2023-08-26T10:16:22.941Z,38.47
2023-08-26T10:19:31.326Z,39.55
2023-08-26T10:22:37.461Z,38.54
2023-08-26T10:25:41.347Z,37.82
2023-08-26T10:28:44.256Z,37.52
2023-08-26T10:31:48.104Z,37.12
2023-08-26T10:35:00.433Z,36.38
2023-08-26T10:38:10.722Z,35.97
2023-08-26T10:41:13.220Z,36.64
2023-08-26T10:44:15.460Z,36.28
2023-08-26T10:47:40.168Z,36.21
2023-08-26T10:50:48.000Z,36.71
2023-08-26T10:53:50.101Z,37.12
2023-08-26T10:57:08.912Z,36.93
2023-08-26T11:00:14.452Z,37.40
2023-08-26T11:03:19.771Z,37.84
2023-08-26T11:06:23.638Z,37.86
2023-08-26T11:09:30.355Z,37.82
2023-08-26T11:12:37.088Z,38.11
2023-08-26T11:15:43.495Z,38.07
2023-08-26T11:18:46.936Z,37.96
2023-08-26T11:21:48.929Z,37.99
2023-08-26T11:24:52.528Z,37.70
2023-08-26T11:28:06.648Z,38.14
2023-08-26T11:31:08.545Z,38.03
2023-08-26T11:34:10.686Z,37.60
2023-08-26T11:37:12.566Z,37.33
2023-08-26T11:40:15.404Z,37.43
2023-08-26T11:43:19.652Z,37.64
2023-08-26T11:46:21.905Z,37.55
2023-08-26T11:49:24.793Z,37.73
2023-08-26T11:52:36.746Z,38.11
2023-08-26T11:55:40.278Z,38.42
2023-08-26T11:58:42.192Z,38.33
2023-08-26T12:01:44.101Z,38.57
2023-08-26T12:04:46.886Z,38.35
2023-08-26T12:07:51.172Z,38.59
2023-08-26T12:10:54.558Z,38.61
2023-08-26T12:13:56.612Z,38.03
2023-08-26T12:17:05.870Z,37.91
2023-08-26T12:20:20.698Z,37.67
2023-08-26T12:23:22.921Z,37.82
2023-08-26T12:26:24.885Z,37.50
2023-08-26T12:29:26.761Z,37.32
2023-08-26T12:32:29.050Z,36.76
2023-08-26T12:35:32.428Z,36.74
2023-08-26T12:38:35.026Z,36.82
2023-08-26T12:41:36.889Z,36.74
2023-08-26T12:44:39.925Z,36.57
2023-08-26T12:47:44.086Z,36.77
2023-08-26T12:50:46.848Z,36.64
2023-08-26T12:53:48.865Z,36.72
2023-08-26T12:56:51.203Z,36.69
2023-08-26T12:59:53.062Z,36.34
2023-08-26T13:02:55.133Z,36.21
2023-08-26T13:05:57.143Z,36.35
2023-08-26T13:08:59.124Z,36.17
2023-08-26T13:12:01.075Z,36.53
2023-08-26T13:15:03.474Z,36.54
2023-08-26T13:18:05.704Z,36.54
2023-08-26T13:21:07.606Z,36.55
2023-08-26T13:24:10.756Z,36.84
2023-08-26T13:27:12.772Z,36.77
2023-08-26T13:30:14.691Z,36.57
2023-08-26T13:33:16.614Z,36.64
2023-08-26T13:36:19.028Z,36.63
2023-08-26T13:39:20.963Z,36.74
2023-08-26T13:42:22.855Z,36.98
2023-08-26T13:45:24.879Z,36.58
2023-08-26T13:48:26.913Z,36.57
2023-08-26T13:51:29.985Z,36.45
2023-08-26T13:54:31.861Z,35.96
2023-08-26T13:57:34.610Z,35.79
2023-08-26T14:00:36.597Z,35.28
2023-08-26T14:03:38.936Z,34.47
2023-08-26T14:06:41.311Z,34.87
2023-08-26T14:09:44.429Z,34.60
2023-08-26T14:12:46.641Z,34.71
2023-08-26T14:15:50.080Z,35.19
2023-08-26T14:18:52.087Z,35.07
2023-08-26T14:21:54.073Z,35.14
2023-08-26T14:24:56.063Z,35.17
2023-08-26T14:27:59.882Z,35.97
2023-08-26T14:31:04.556Z,36.66
2023-08-26T14:34:06.529Z,36.84
2023-08-26T14:37:08.471Z,36.82
2023-08-26T14:40:10.649Z,37.17
2023-08-26T14:43:13.849Z,37.09
2023-08-26T14:46:15.862Z,36.76
2023-08-26T14:49:18.708Z,37.33
2023-08-26T14:52:20.591Z,37.54
2023-08-26T14:55:22.579Z,37.28
2023-08-26T14:58:25.902Z,37.56
2023-08-26T15:01:27.981Z,37.76
2023-08-26T15:04:29.875Z,37.89
2023-08-26T15:07:31.739Z,38.04
2023-08-26T15:10:33.642Z,37.78
2023-08-26T15:13:35.843Z,37.14
2023-08-26T15:16:37.836Z,37.63
2023-08-26T15:19:39.924Z,38.20
2023-08-26T15:22:41.819Z,37.54
2023-08-26T15:25:48.243Z,37.41
2023-08-26T15:28:50.251Z,38.59
2023-08-26T15:31:52.273Z,38.06
2023-08-26T15:34:54.343Z,38.26
2023-08-26T15:37:57.050Z,38.49
2023-08-26T15:41:04.580Z,37.73
2023-08-26T15:44:06.843Z,37.74
2023-08-26T15:47:09.079Z,38.00
2023-08-26T15:50:11.449Z,37.61
2023-08-26T15:53:14.851Z,37.53
2023-08-26T15:56:16.956Z,38.13
2023-08-26T15:59:19.093Z,38.85
2023-08-26T16:02:21.219Z,39.21
2023-08-26T16:05:23.571Z,39.68
2023-08-26T16:08:25.581Z,40.12
2023-08-26T16:11:31.689Z,40.01
2023-08-26T16:14:36.250Z,40.81
2023-08-26T16:17:38.328Z,41.10
2023-08-26T16:20:41.349Z,41.59
2023-08-26T16:23:43.289Z,41.55
2023-08-26T16:26:45.482Z,42.14
2023-08-26T16:29:47.949Z,42.67
2023-08-26T16:32:51.494Z,42.79
2023-08-26T16:35:53.505Z,43.21
2023-08-26T16:38:55.445Z,43.70
2023-08-26T16:41:57.354Z,43.89
2023-08-26T16:44:59.267Z,44.54
2023-08-26T16:48:01.255Z,44.46
2023-08-26T16:51:03.445Z,45.31
2023-08-26T16:54:06.355Z,45.91
2023-08-26T16:57:09.185Z,46.62
2023-08-26T17:00:11.858Z,47.62
2023-08-26T17:03:14.318Z,48.22
2023-08-26T17:06:16.405Z,48.72
2023-08-26T17:09:18.418Z,48.92
2023-08-26T17:12:20.323Z,48.97
2023-08-26T17:15:22.317Z,49.28
2023-08-26T17:18:24.922Z,49.39
2023-08-26T17:21:26.849Z,49.62
2023-08-26T17:24:28.855Z,50.25
2023-08-26T17:27:33.414Z,50.07
2023-08-26T17:30:35.891Z,50.92
2023-08-26T17:33:39.431Z,52.08
2023-08-26T17:36:41.349Z,53.16
2023-08-26T17:39:44.432Z,54.08
2023-08-26T17:42:49.412Z,54.35
2023-08-26T17:45:54.775Z,55.08
2023-08-26T17:48:56.878Z,55.12
2023-08-26T17:51:58.965Z,55.58
2023-08-26T17:55:01.017Z,56.01
2023-08-26T17:58:03.762Z,56.30
2023-08-26T18:01:05.890Z,56.31
2023-08-26T18:04:08.357Z,56.86
2023-08-26T18:07:10.248Z,57.66
2023-08-26T18:10:12.218Z,57.68
2023-08-26T18:13:14.777Z,57.49
2023-08-26T18:16:16.852Z,57.91
2023-08-26T18:19:18.912Z,58.08
2023-08-26T18:22:20.810Z,58.05
2023-08-26T18:25:22.935Z,58.44
2023-08-26T18:28:24.798Z,58.81
2023-08-26T18:31:26.821Z,58.98
2023-08-26T18:34:28.819Z,59.15
2023-08-26T18:37:32.574Z,59.25
2023-08-26T18:40:34.397Z,59.49
2023-08-26T18:43:36.367Z,59.59
2023-08-26T18:46:38.565Z,59.81
2023-08-26T18:49:40.470Z,60.01
2023-08-26T18:52:42.502Z,60.29
2023-08-26T18:55:50.498Z,60.85
2023-08-26T18:58:52.373Z,60.55
2023-08-26T19:01:54.295Z,61.01
2023-08-26T19:04:56.428Z,61.17
2023-08-26T19:07:58.289Z,61.65
2023-08-26T19:11:00.161Z,62.29
2023-08-26T19:14:02.100Z,62.09
2023-08-26T19:17:04.172Z,62.22
2023-08-26T19:20:07.002Z,62.40
2023-08-26T19:23:08.925Z,62.47
2023-08-26T19:26:11.461Z,62.54
2023-08-26T19:29:13.363Z,62.79
2023-08-26T19:32:15.285Z,63.10
2023-08-26T19:35:17.288Z,63.39
2023-08-26T19:38:19.264Z,63.25
2023-08-26T19:41:21.275Z,63.35
2023-08-26T19:44:23.375Z,63.28
2023-08-26T19:47:25.330Z,63.46
2023-08-26T19:50:27.252Z,64.05
2023-08-26T19:53:29.174Z,64.03
2023-08-26T19:56:31.105Z,63.98
2023-08-26T19:59:33.000Z,64.06
2023-08-26T20:02:34.923Z,64.33
2023-08-26T20:05:37.294Z,64.44
2023-08-26T20:08:39.176Z,64.87
2023-08-26T20:11:41.092Z,64.69
2023-08-26T20:14:43.126Z,65.12
2023-08-26T20:17:45.040Z,65.21
2023-08-26T20:20:47.026Z,65.18
2023-08-26T20:23:48.923Z,65.38
2023-08-26T20:26:50.861Z,65.31
2023-08-26T20:29:52.983Z,65.23
2023-08-26T20:32:54.872Z,65.25
2023-08-26T20:35:57.794Z,65.27
2023-08-26T20:38:59.776Z,65.22
2023-08-26T20:42:04.143Z,65.34
2023-08-26T20:45:07.690Z,65.59
2023-08-26T20:48:09.564Z,65.49
2023-08-26T20:51:11.438Z,65.64
2023-08-26T20:54:13.406Z,66.09
2023-08-26T20:57:15.279Z,65.87
2023-08-26T21:00:17.293Z,66.05
2023-08-26T21:03:19.243Z,66.21
2023-08-26T21:06:21.305Z,66.22
2023-08-26T21:09:23.273Z,66.76
2023-08-26T21:12:25.660Z,66.89
2023-08-26T21:15:28.120Z,66.99
2023-08-26T21:18:30.162Z,66.86
2023-08-26T21:21:32.054Z,67.10
2023-08-26T21:24:33.967Z,67.40
2023-08-26T21:27:37.458Z,67.48
2023-08-26T21:30:39.438Z,67.58
2023-08-26T21:33:41.737Z,67.47
2023-08-26T21:36:43.739Z,67.43
2023-08-26T21:39:46.852Z,67.49
2023-08-26T21:42:48.749Z,67.51
2023-08-26T21:45:51.823Z,67.68
2023-08-26T21:48:53.739Z,67.67
2023-08-26T21:51:55.597Z,67.31
2023-08-26T21:54:57.462Z,67.08
2023-08-26T21:58:07.290Z,67.38
2023-08-26T22:01:09.989Z,67.65
2023-08-26T22:04:12.085Z,67.65
2023-08-26T22:07:14.290Z,67.84
2023-08-26T22:10:16.187Z,67.80
2023-08-26T22:13:18.702Z,67.89
2023-08-26T22:16:20.789Z,67.83
2023-08-26T22:19:23.224Z,68.08
2023-08-26T22:22:25.106Z,67.87
2023-08-26T22:25:26.979Z,68.18
2023-08-26T22:28:28.956Z,68.41
2023-08-26T22:31:31.111Z,68.34
2023-08-26T22:34:33.253Z,68.50
2023-08-26T22:37:35.808Z,68.37
2023-08-26T22:40:37.637Z,68.63
2023-08-26T22:43:39.431Z,68.53
2023-08-26T22:46:41.328Z,68.57
2023-08-26T22:49:43.238Z,69.01
2023-08-26T22:52:45.080Z,69.01
2023-08-26T22:55:47.090Z,69.38
2023-08-26T22:58:49.716Z,69.39
2023-08-26T23:01:51.625Z,69.34
2023-08-26T23:04:53.539Z,69.24
2023-08-26T23:07:55.535Z,69.33
2023-08-26T23:10:59.378Z,69.38
2023-08-26T23:14:01.191Z,69.27
2023-08-26T23:17:03.415Z,69.21
2023-08-26T23:20:08.955Z,69.63
2023-08-26T23:23:11.164Z,69.21
2023-08-26T23:26:12.979Z,69.27
2023-08-26T23:29:15.285Z,69.32
2023-08-26T23:32:17.533Z,69.59
2023-08-26T23:35:19.677Z,69.47
2023-08-26T23:38:21.591Z,69.79
2023-08-26T23:41:23.429Z,69.58
2023-08-26T23:44:25.351Z,69.72
2023-08-26T23:47:30.311Z,69.39
2023-08-26T23:50:32.210Z,69.65
2023-08-26T23:53:34.201Z,69.52
2023-08-26T23:56:36.164Z,70.02
2023-08-26T23:59:38.882Z,69.96
